Time;durP1;ratioP1;P1;durP2;ratioP2;P2;SDS_P1;SDS_P2;PMS_P1;PMS_P2;Temp;Humidity;BMP_temperature;BMP_pressure;BME280_temperature;BME280_humidity;BME280_pressure;Samples;Min_cycle;Max_cycle;Signal;HPM_P1;HPM_P2
2021/12/02 00:01:39;;;;;;;3.05;0.73;;;15.70;45.50;;;;;;5127212;28;20098;-64
2021/12/02 00:04:05;;;;;;;2.30;0.30;;;15.70;45.50;;;;;;5126863;28;20118;-62
2021/12/02 00:06:31;;;;;;;2.00;0.30;;;15.60;45.50;;;;;;5127048;28;20039;-62
2021/12/02 00:08:57;;;;;;;2.92;0.30;;;15.60;45.50;;;;;;5128810;28;20111;-62
2021/12/02 00:11:23;;;;;;;2.45;0.60;;;15.60;45.50;;;;;;5127225;28;20554;-64
2021/12/02 00:22:01;;;;;;;1.95;0.40;;;15.50;45.40;;;;;;5151908;27;20280;-62
2021/12/02 00:24:29;;;;;;;;;;;15.50;45.40;;;;;;5152659;27;20046;-64
2021/12/02 00:26:54;;;;;;;1.92;0.30;;;15.50;45.50;;;;;;5152026;27;19919;-64
2021/12/02 00:29:22;;;;;;;3.35;0.40;;;15.40;45.50;;;;;;5151889;27;20042;-64
2021/12/02 00:31:50;;;;;;;3.10;0.45;;;15.40;45.50;;;;;;5134510;27;20042;-64
2021/12/02 00:34:16;;;;;;;3.90;0.50;;;15.40;45.50;;;;;;5152189;27;20050;-62
2021/12/02 00:36:43;;;;;;;2.90;0.20;;;15.40;45.50;;;;;;5170612;27;20039;-64
2021/12/02 00:39:13;;;;;;;1.63;0.20;;;15.40;45.50;;;;;;5170785;27;20038;-64
2021/12/02 00:41:39;;;;;;;3.75;1.20;;;15.40;45.40;;;;;;5170160;27;20073;-64
2021/12/02 00:44:06;;;;;;;1.02;0.20;;;15.40;45.40;;;;;;5151771;27;20046;-62
2021/12/02 00:46:33;;;;;;;1.13;0.30;;;15.40;45.30;;;;;;5169704;27;20039;-64
2021/12/02 00:49:03;;;;;;;1.83;0.40;;;15.40;45.40;;;;;;5151957;27;20125;-64
2021/12/02 00:51:31;;;;;;;1.88;0.25;;;15.30;45.30;;;;;;5151366;27;20412;-64
2021/12/02 00:54:02;;;;;;;2.05;0.28;;;15.40;45.20;;;;;;5169923;27;20582;-64
2021/12/02 00:56:29;;;;;;;2.22;0.50;;;15.40;45.20;;;;;;5169469;27;20043;-64
2021/12/02 00:58:56;;;;;;;2.20;0.20;;;15.30;45.20;;;;;;5169793;27;20070;-62
2021/12/02 01:01:24;;;;;;;1.38;0.10;;;15.30;45.10;;;;;;5169853;27;20048;-61
2021/12/02 01:03:55;;;;;;;1.17;0.20;;;15.30;45.10;;;;;;5169762;27;20039;-62
2021/12/02 01:07:17;;;;;;;2.33;0.20;;;15.30;45.20;;;;;;5169937;27;20103;-64
2021/12/02 01:09:43;;;;;;;;;;;15.30;45.30;;;;;;5170676;27;20046;-62
2021/12/02 01:12:11;;;;;;;0.70;0.20;;;15.30;45.20;;;;;;5169968;27;19915;-64
2021/12/02 01:14:37;;;;;;;1.70;0.20;;;15.30;45.20;;;;;;5169515;27;20034;-62
2021/12/02 01:17:03;;;;;;;2.55;0.30;;;15.30;45.20;;;;;;5168703;27;20042;-64
2021/12/02 01:19:29;;;;;;;2.22;0.20;;;15.30;45.20;;;;;;5147695;27;20535;-64
2021/12/02 01:21:55;;;;;;;2.70;0.20;;;15.30;45.20;;;;;;5147392;27;20175;-62
2021/12/02 01:24:22;;;;;;;1.27;0.30;;;15.30;45.10;;;;;;5148773;27;20041;-62
2021/12/02 01:26:51;;;;;;;0.85;0.20;;;15.30;45.10;;;;;;5148958;27;20047;-62
2021/12/02 01:29:20;;;;;;;0.90;0.20;;;15.30;45.10;;;;;;5142220;27;20035;-62
2021/12/02 01:31:50;;;;;;;1.27;0.20;;;15.30;45.10;;;;;;5133237;27;20046;-61
2021/12/02 01:34:21;;;;;;;1.38;0.20;;;15.30;45.00;;;;;;5133966;27;20046;-62
2021/12/02 01:36:49;;;;;;;3.00;0.30;;;15.30;45.80;;;;;;5133781;27;20035;-63
2021/12/02 01:39:16;;;;;;;1.75;0.20;;;15.30;44.90;;;;;;5132801;27;20638;-62
2021/12/02 01:41:48;;;;;;;3.05;0.20;;;15.40;44.80;;;;;;5132466;27;20367;-62
2021/12/02 01:44:16;;;;;;;1.23;0.20;;;15.60;44.50;;;;;;5132752;27;20088;-62
2021/12/02 01:46:42;;;;;;;0.98;0.10;;;15.90;43.70;;;;;;5133374;27;20043;-66
2021/12/02 01:49:10;;;;;;;1.90;0.30;;;16.20;43.30;;;;;;5134138;27;20506;-65
2021/12/02 01:51:41;;;;;;;1.08;0.17;;;16.80;42.50;;;;;;5133027;27;20063;-65
2021/12/02 01:54:10;;;;;;;1.50;0.20;;;17.80;41.20;;;;;;5132330;27;20038;-64
2021/12/02 01:56:54;;;;;;;1.20;0.20;;;18.80;39.40;;;;;;5133360;27;20035;-64
2021/12/02 01:59:26;;;;;;;1.13;0.30;;;19.90;37.70;;;;;;5132593;27;20107;-66
2021/12/02 02:01:57;;;;;;;1.77;0.10;;;20.70;35.80;;;;;;5132491;27;20410;-65
2021/12/02 02:04:24;;;;;;;3.33;0.20;;;21.20;34.90;;;;;;5133554;27;20054;-66
2021/12/02 02:09:36;;;;;;;1.52;0.10;;;21.20;33.90;;;;;;5087887;27;20467;-65
2021/12/02 02:12:05;;;;;;;0.65;0.10;;;21.10;33.60;;;;;;5086410;28;20079;-62
2021/12/02 02:14:32;;;;;;;1.17;0.28;;;21.10;33.70;;;;;;5086679;28;20095;-65
2021/12/02 02:17:01;;;;;;;0.93;0.10;;;20.90;33.70;;;;;;5086403;28;20055;-62
2021/12/02 02:19:30;;;;;;;0.98;0.10;;;21.00;33.70;;;;;;5086407;28;20047;-64
2021/12/02 02:21:57;;;;;;;0.43;0.10;;;21.20;33.50;;;;;;5086602;28;20102;-64
2021/12/02 02:24:23;;;;;;;0.40;0.10;;;21.20;33.30;;;;;;5086718;28;20079;-64
2021/12/02 02:26:49;;;;;;;1.20;0.10;;;21.30;33.30;;;;;;5086726;28;20075;-63
2021/12/02 02:29:14;;;;;;;1.48;0.10;;;21.30;33.10;;;;;;5086630;28;20365;-65
2021/12/02 02:31:45;;;;;;;1.48;0.43;;;21.40;33.10;;;;;;5087773;28;20046;-64
2021/12/02 02:34:12;;;;;;;0.75;0.30;;;21.40;33.00;;;;;;5086058;28;20047;-64
2021/12/02 02:36:49;;;;;;;0.73;0.10;;;21.40;32.90;;;;;;5087505;28;20487;-65
2021/12/02 02:39:15;;;;;;;1.30;0.10;;;21.40;33.20;;;;;;5086359;28;20075;-65
2021/12/02 02:41:43;;;;;;;0.52;0.00;;;21.50;33.10;;;;;;5087174;28;20076;-64
2021/12/02 02:44:09;;;;;;;0.30;0.10;;;21.40;33.00;;;;;;5086339;28;20541;-65
2021/12/02 02:46:38;;;;;;;0.57;0.10;;;21.30;33.20;;;;;;5087591;28;20044;-64
2021/12/02 02:49:11;;;;;;;2.05;0.10;;;21.20;33.30;;;;;;5087372;28;20049;-65
2021/12/02 02:51:38;;;;;;;0.68;0.05;;;21.10;33.50;;;;;;5086323;28;20040;-64
2021/12/02 02:54:07;;;;;;;1.05;0.10;;;21.10;33.70;;;;;;5085291;28;20033;-64
2021/12/02 02:56:39;;;;;;;0.75;0.10;;;21.00;33.70;;;;;;5084966;28;20396;-65
2021/12/02 03:04:56;;;;;;;0.45;0.10;;;20.70;34.00;;;;;;5127218;28;20070;-65
2021/12/02 03:18:19;;;;;;;0.98;0.00;;;20.70;33.90;;;;;;5127290;28;20053;-65
2021/12/02 03:20:45;;;;;;;0.52;0.10;;;20.90;33.70;;;;;;5127462;28;20122;-64
2021/12/02 03:23:11;;;;;;;0.73;0.10;;;21.00;33.40;;;;;;5127771;28;20050;-65
2021/12/02 03:25:36;;;;;;;1.35;0.10;;;21.30;33.30;;;;;;5127723;28;20035;-64
2021/12/02 03:28:03;;;;;;;0.45;0.08;;;21.50;32.90;;;;;;5129213;28;20391;-64
2021/12/02 03:30:29;;;;;;;0.25;0.00;;;21.60;32.60;;;;;;5129031;27;20118;-64
2021/12/02 03:32:55;;;;;;;0.47;0.10;;;21.70;32.40;;;;;;5128457;27;20456;-65
2021/12/02 03:35:20;;;;;;;2.25;0.35;;;21.80;32.40;;;;;;5128470;28;20039;-64
2021/12/02 03:37:49;;;;;;;0.82;0.00;;;21.80;32.20;;;;;;5128170;28;20070;-64
2021/12/02 03:40:15;;;;;;;1.20;0.00;;;21.80;32.10;;;;;;5127262;28;20106;-64
2021/12/02 03:42:46;;;;;;;0.20;0.00;;;21.70;32.30;;;;;;5128408;28;20367;-63
2021/12/02 03:45:15;;;;;;;1.52;0.13;;;21.50;32.30;;;;;;5128564;27;20441;-64
2021/12/02 03:47:41;;;;;;;1.15;0.00;;;21.40;32.50;;;;;;5128727;28;20043;-64
2021/12/02 03:50:07;;;;;;;0.90;0.03;;;21.30;32.60;;;;;;5127639;28;20035;-64
2021/12/02 03:52:33;;;;;;;0.30;0.00;;;21.20;32.80;;;;;;5128306;27;20405;-63
2021/12/02 03:54:58;;;;;;;0.70;0.00;;;21.10;32.90;;;;;;5126398;27;20039;-64
2021/12/02 03:57:31;;;;;;;0.90;0.08;;;21.10;33.00;;;;;;5126317;28;20053;-64
2021/12/02 03:59:57;;;;;;;0.45;0.00;;;21.00;33.00;;;;;;5128215;27;20391;-62
2021/12/02 04:02:23;;;;;;;0.40;0.00;;;20.90;33.20;;;;;;5127970;27;20092;-62
2021/12/02 04:04:48;;;;;;;1.08;0.10;;;20.90;33.30;;;;;;5127064;28;20039;-62
2021/12/02 04:07:17;;;;;;;0.28;0.00;;;20.80;33.40;;;;;;5128268;28;20035;-64
2021/12/02 04:09:44;;;;;;;0.20;0.00;;;20.70;33.30;;;;;;5127116;27;20031;-62
2021/12/02 04:12:25;;;;;;;0.50;0.00;;;20.60;33.50;;;;;;5125425;28;20062;-64
2021/12/02 04:15:11;;;;;;;0.75;0.08;;;20.50;33.70;;;;;;5126311;28;20414;-64
2021/12/02 04:17:41;;;;;;;1.10;0.00;;;20.50;33.80;;;;;;5127196;28;20043;-63
2021/12/02 04:20:12;;;;;;;1.23;0.00;;;20.40;33.80;;;;;;5127652;27;20032;-64
2021/12/02 04:22:38;;;;;;;1.20;0.08;;;20.50;33.90;;;;;;5122330;27;20050;-64
2021/12/02 04:25:08;;;;;;;0.75;0.10;;;20.60;33.80;;;;;;5113933;28;20044;-62
2021/12/02 04:27:34;;;;;;;0.40;0.00;;;20.60;33.80;;;;;;5114354;28;20035;-64
2021/12/02 04:29:59;;;;;;;0.65;0.00;;;20.70;33.60;;;;;;5112902;28;20044;-61
2021/12/02 04:32:25;;;;;;;0.65;0.00;;;20.70;34.20;;;;;;5113954;28;20046;-64
2021/12/02 04:34:51;;;;;;;0.55;0.00;;;20.80;33.40;;;;;;5112060;28;20039;-62
2021/12/02 04:37:17;;;;;;;0.40;0.00;;;20.90;33.30;;;;;;5111927;28;20032;-64
2021/12/02 04:39:42;;;;;;;0.10;0.00;;;20.90;33.20;;;;;;5113542;28;20051;-62
2021/12/02 04:42:11;;;;;;;1.52;0.00;;;20.90;33.20;;;;;;5113791;28;20039;-62
2021/12/02 04:44:37;;;;;;;0.43;0.00;;;20.90;33.30;;;;;;5113386;28;20063;-63
2021/12/02 04:47:03;;;;;;;0.60;0.00;;;21.00;33.30;;;;;;5114040;28;20078;-64
2021/12/02 04:49:28;;;;;;;0.68;0.00;;;21.00;33.20;;;;;;5112655;28;20432;-64
2021/12/02 04:51:54;;;;;;;0.40;0.00;;;21.00;33.10;;;;;;5113763;28;20547;-61
2021/12/02 04:54:23;;;;;;;0.32;0.00;;;20.90;33.20;;;;;;5113338;28;20486;-61
2021/12/02 04:56:48;;;;;;;0.10;0.00;;;21.00;33.30;;;;;;5111393;28;20081;-63
2021/12/02 04:59:14;;;;;;;0.45;0.00;;;21.00;33.10;;;;;;5113005;28;20035;-62
2021/12/02 05:01:40;;;;;;;0.32;0.00;;;21.00;33.00;;;;;;5112148;28;20043;-62
2021/12/02 05:04:05;;;;;;;0.30;0.00;;;20.90;33.10;;;;;;5113123;28;20213;-63
2021/12/02 05:06:31;;;;;;;0.13;0.00;;;20.90;33.20;;;;;;5112026;28;20051;-64
2021/12/02 05:08:57;;;;;;;1.13;0.00;;;20.90;33.30;;;;;;5113218;28;20043;-61
2021/12/02 05:11:24;;;;;;;0.38;0.00;;;20.90;33.20;;;;;;5112860;27;20554;-62
2021/12/02 05:13:49;;;;;;;0.50;0.00;;;20.80;33.20;;;;;;5112074;28;20104;-64
2021/12/02 05:16:15;;;;;;;0.20;0.00;;;20.90;33.30;;;;;;5111451;28;20634;-64
2021/12/02 05:18:41;;;;;;;0.38;0.00;;;20.90;33.30;;;;;;5112797;28;20030;-64
2021/12/02 05:21:06;;;;;;;0.20;0.00;;;21.00;33.30;;;;;;5111145;28;20403;-64
2021/12/02 05:23:33;;;;;;;0.63;0.00;;;21.00;33.90;;;;;;5111205;28;20043;-61
2021/12/02 05:25:59;;;;;;;0.10;0.00;;;21.10;33.10;;;;;;5112776;28;20042;-62
2021/12/02 05:28:25;;;;;;;0.75;0.00;;;21.10;32.90;;;;;;5111693;28;20118;-64
2021/12/02 05:30:51;;;;;;;0.68;0.10;;;21.10;33.00;;;;;;5111290;28;20056;-62
2021/12/02 05:33:19;;;;;;;0.30;0.00;;;21.10;33.00;;;;;;5111440;28;20048;-62
2021/12/02 05:35:46;;;;;;;0.25;0.00;;;21.10;33.00;;;;;;5109791;28;20097;-64
2021/12/02 05:38:12;;;;;;;0.43;0.20;;;21.00;33.00;;;;;;5112130;28;20044;-64
2021/12/02 05:40:37;;;;;;;0.65;0.00;;;20.90;33.10;;;;;;5110876;28;20080;-62
2021/12/02 05:43:04;;;;;;;1.00;0.00;;;20.90;33.20;;;;;;5110812;28;20046;-62
2021/12/02 05:45:29;;;;;;;0.20;0.00;;;20.90;33.30;;;;;;5112126;27;20049;-62
2021/12/02 05:47:55;;;;;;;0.60;0.00;;;20.90;33.30;;;;;;5112491;28;20114;-63
2021/12/02 05:50:21;;;;;;;0.25;0.00;;;20.90;33.40;;;;;;5112020;28;20035;-62
2021/12/02 05:52:47;;;;;;;0.38;0.00;;;20.80;33.40;;;;;;5111015;28;20138;-64
2021/12/02 05:55:13;;;;;;;0.75;0.00;;;20.80;33.40;;;;;;5112290;28;20035;-62
2021/12/02 05:57:39;;;;;;;0.28;0.00;;;20.80;33.40;;;;;;5111970;28;20040;-62
2021/12/02 06:00:06;;;;;;;1.10;0.00;;;20.80;33.50;;;;;;5110708;28;20471;-62
2021/12/02 06:02:35;;;;;;;0.60;0.17;;;20.80;33.40;;;;;;5110407;28;20117;-62
2021/12/02 06:05:00;;;;;;;0.22;0.00;;;20.80;33.40;;;;;;5110411;28;20051;-62
2021/12/02 06:07:26;;;;;;;1.42;0.00;;;20.80;33.40;;;;;;5110838;28;20047;-63
2021/12/02 06:09:53;;;;;;;0.57;0.00;;;20.80;33.40;;;;;;5112097;28;20391;-64
2021/12/02 06:12:21;;;;;;;1.23;0.00;;;20.70;33.40;;;;;;5111374;28;20059;-64
2021/12/02 06:14:47;;;;;;;0.47;0.00;;;20.80;33.30;;;;;;5110694;28;20551;-64
2021/12/02 06:17:13;;;;;;;0.13;0.00;;;20.80;33.30;;;;;;5110104;28;20039;-62
2021/12/02 06:19:38;;;;;;;0.32;0.00;;;20.70;33.30;;;;;;5110141;28;20044;-65
2021/12/02 06:22:08;;;;;;;0.93;0.15;;;20.70;34.10;;;;;;5109778;28;20084;-65
2021/12/02 06:24:43;;;;;;;0.40;0.00;;;20.70;33.40;;;;;;5110374;28;20035;-63
2021/12/02 06:27:10;;;;;;;0.30;0.00;;;20.60;33.50;;;;;;5109997;28;20043;-65
2021/12/02 06:29:37;;;;;;;0.77;0.08;;;20.60;33.50;;;;;;5111569;28;20035;-65
2021/12/02 06:32:04;;;;;;;0.47;0.00;;;20.70;33.50;;;;;;5110034;28;20035;-64
2021/12/02 06:34:34;;;;;;;0.20;0.00;;;20.70;33.50;;;;;;5109633;28;20088;-62
2021/12/02 06:36:59;;;;;;;0.10;0.00;;;20.70;33.40;;;;;;5109639;28;20111;-61
2021/12/02 06:39:25;;;;;;;0.50;0.00;;;20.60;34.70;;;;;;5108714;28;20572;-62
2021/12/02 06:41:54;;;;;;;1.30;0.00;;;20.60;35.10;;;;;;5106131;28;20692;-63
2021/12/02 06:44:19;;;;;;;0.10;0.00;;;20.60;35.40;;;;;;5105992;28;20039;-62
2021/12/02 06:46:45;;;;;;;0.20;0.00;;;20.60;35.60;;;;;;5109675;28;20050;-62
2021/12/02 06:49:11;;;;;;;1.00;0.10;;;20.70;35.70;;;;;;5107239;28;20047;-62
2021/12/02 06:51:36;;;;;;;11.52;0.50;;;20.70;35.40;;;;;;5104254;28;20126;-64
2021/12/02 06:54:04;;;;;;;1.25;0.08;;;20.60;36.00;;;;;;5102140;28;20043;-63
2021/12/02 06:56:30;;;;;;;0.43;0.00;;;20.60;36.60;;;;;;5106132;28;20035;-63
2021/12/02 06:58:56;;;;;;;1.27;0.10;;;20.60;36.70;;;;;;5104852;28;20494;-65
2021/12/02 07:01:21;;;;;;;2.30;0.10;;;20.50;36.30;;;;;;5098321;28;20040;-64
2021/12/02 07:03:47;;;;;;;0.55;0.00;;;20.40;36.90;;;;;;5105298;28;20059;-63
2021/12/02 07:06:13;;;;;;;0.98;0.10;;;20.40;37.10;;;;;;5101978;28;20063;-62
2021/12/02 07:08:38;;;;;;;1.52;0.00;;;20.40;37.30;;;;;;5102818;28;20036;-65
2021/12/02 07:11:07;;;;;;;2.47;0.10;;;20.40;37.90;;;;;;5102263;28;20555;-64
2021/12/02 07:13:35;;;;;;;2.47;0.20;;;20.50;37.60;;;;;;5088073;28;20047;-67
2021/12/02 07:16:01;;;;;;;0.35;0.00;;;20.40;37.50;;;;;;5099664;28;20088;-66
2021/12/02 07:18:27;;;;;;;4.43;0.00;;;20.40;37.40;;;;;;5093559;28;20047;-66
2021/12/02 07:20:52;;;;;;;2.17;0.10;;;20.40;37.50;;;;;;5102746;28;20473;-67
2021/12/02 07:23:22;;;;;;;2.13;0.08;;;20.40;37.60;;;;;;5105982;28;20085;-64
2021/12/02 07:25:49;;;;;;;1.48;0.00;;;20.50;37.60;;;;;;5100157;28;20058;-66
2021/12/02 07:28:16;;;;;;;2.15;0.10;;;20.50;37.80;;;;;;5100288;28;20050;-63
2021/12/02 07:30:50;;;;;;;1.95;0.10;;;20.60;37.60;;;;;;5100326;28;20105;-62
2021/12/02 07:33:16;;;;;;;0.55;0.00;;;20.50;36.70;;;;;;5100555;28;20103;-64
2021/12/02 07:35:42;;;;;;;0.52;0.00;;;20.30;36.10;;;;;;5104121;28;20035;-65
2021/12/02 07:38:08;;;;;;;2.72;0.03;;;20.30;35.80;;;;;;5104488;28;20040;-64
2021/12/02 07:40:34;;;;;;;2.25;0.10;;;20.60;35.60;;;;;;5100746;28;20502;-64
2021/12/02 07:43:01;;;;;;;0.70;0.00;;;21.10;35.30;;;;;;5094695;28;20039;-66
2021/12/02 07:45:31;;;;;;;1.83;0.10;;;21.60;34.20;;;;;;5094410;28;20040;-67
2021/12/02 07:47:57;;;;;;;;;;;21.80;33.30;;;;;;5094851;28;20042;-65
2021/12/02 07:50:23;;;;;;;1.45;0.10;;;22.00;33.40;;;;;;5097120;28;20616;-62
2021/12/02 07:52:52;;;;;;;0.22;0.00;;;22.20;32.60;;;;;;5090511;28;20097;-63
2021/12/02 07:55:20;;;;;;;3.35;0.10;;;22.30;32.60;;;;;;5093426;28;20039;-65
2021/12/02 07:57:47;;;;;;;1.02;0.00;;;22.50;32.60;;;;;;5097437;28;20059;-65
2021/12/02 08:00:16;;;;;;;0.88;0.00;;;22.70;32.50;;;;;;5087546;27;20055;-64
2021/12/02 08:02:43;;;;;;;0.70;0.10;;;22.70;32.50;;;;;;5087897;28;20051;-64
2021/12/02 08:05:10;;;;;;;1.98;0.08;;;22.50;32.90;;;;;;5074145;27;20121;-65
2021/12/02 08:07:39;;;;;;;6.65;0.10;;;22.30;33.30;;;;;;5085106;27;20048;-66
2021/12/02 08:10:07;;;;;;;0.25;0.00;;;22.20;33.60;;;;;;5084789;27;20051;-64
2021/12/02 08:12:34;;;;;;;3.28;0.00;;;22.10;33.80;;;;;;5091669;28;20404;-63
2021/12/02 08:15:03;;;;;;;1.40;0.00;;;21.90;34.10;;;;;;5091095;27;20298;-67
2021/12/02 08:17:29;;;;;;;1.20;0.00;;;21.60;34.50;;;;;;5092768;28;20074;-65
2021/12/02 08:19:54;;;;;;;1.13;0.00;;;21.40;34.90;;;;;;5090393;27;20072;-66
2021/12/02 08:22:20;;;;;;;1.75;0.00;;;21.10;35.20;;;;;;5090300;28;20039;-63
2021/12/02 08:24:46;;;;;;;0.95;0.00;;;20.90;35.20;;;;;;5094146;28;20081;-66
2021/12/02 08:27:11;;;;;;;0.10;0.00;;;20.70;35.80;;;;;;5088463;28;20032;-64
2021/12/02 08:29:37;;;;;;;0.47;0.00;;;20.40;36.30;;;;;;5086815;28;20558;-62
2021/12/02 08:32:03;;;;;;;1.63;0.15;;;20.30;36.80;;;;;;5086008;27;21114;-63
2021/12/02 08:34:29;;;;;;;1.90;0.00;;;20.10;37.10;;;;;;5094263;28;20475;-64
2021/12/02 08:36:57;;;;;;;0.57;0.00;;;19.90;37.10;;;;;;5087320;28;20042;-65
2021/12/02 08:39:26;;;;;;;2.53;0.10;;;19.70;37.00;;;;;;5085725;27;20048;-65
2021/12/02 08:41:56;;;;;;;0.52;0.05;;;19.60;37.00;;;;;;5085330;27;20047;-64
2021/12/02 08:44:24;;;;;;;0.40;0.00;;;19.60;37.30;;;;;;5079452;27;20054;-64
2021/12/02 08:46:51;;;;;;;0.77;0.10;;;19.60;37.10;;;;;;5090156;28;20582;-63
2021/12/02 08:49:18;;;;;;;1.63;0.00;;;19.80;36.90;;;;;;5088428;28;20035;-63
2021/12/02 08:51:45;;;;;;;0.50;0.20;;;20.00;37.70;;;;;;5088713;27;20043;-63
2021/12/02 08:54:12;;;;;;;1.67;0.00;;;20.20;37.90;;;;;;5091951;28;20032;-62
2021/12/02 08:56:38;;;;;;;1.58;0.10;;;20.30;38.30;;;;;;5091807;28;20192;-62
2021/12/02 08:59:04;;;;;;;2.60;0.10;;;20.40;38.80;;;;;;5097075;27;20028;-64
2021/12/02 09:01:32;;;;;;;0.68;0.10;;;20.60;38.90;;;;;;5093940;28;20544;-64
2021/12/02 09:03:58;;;;;;;2.67;0.00;;;20.90;38.50;;;;;;5093275;28;20414;-64
2021/12/02 09:06:24;;;;;;;0.40;0.00;;;21.00;38.00;;;;;;5094337;28;20040;-61
2021/12/02 09:08:53;;;;;;;2.15;0.10;;;21.00;38.00;;;;;;5096081;28;20023;-61
2021/12/02 09:11:19;;;;;;;0.30;0.10;;;21.00;38.30;;;;;;5088400;28;20044;-65
2021/12/02 09:13:44;;;;;;;0.95;0.10;;;21.00;38.30;;;;;;5092605;28;20051;-63
2021/12/02 09:16:11;;;;;;;0.17;0.00;;;20.90;38.00;;;;;;5087507;27;20040;-65
2021/12/02 09:18:38;;;;;;;1.00;0.10;;;20.90;38.20;;;;;;5093032;27;20040;-64
2021/12/02 09:21:04;;;;;;;2.60;0.10;;;20.90;38.50;;;;;;5095798;28;20083;-65
2021/12/02 09:23:30;;;;;;;0.30;0.10;;;20.90;37.90;;;;;;5090005;28;20078;-65
2021/12/02 09:25:55;;;;;;;1.70;0.10;;;20.90;36.80;;;;;;5091289;27;20445;-65
2021/12/02 09:28:21;;;;;;;1.13;0.00;;;20.70;36.00;;;;;;5097177;27;20097;-65
2021/12/02 09:30:47;;;;;;;0.47;0.10;;;20.70;35.50;;;;;;5094931;27;20038;-65
2021/12/02 09:33:12;;;;;;;0.30;0.10;;;20.80;35.10;;;;;;5095058;27;20028;-65
2021/12/02 09:35:38;;;;;;;0.50;0.10;;;20.90;34.40;;;;;;5091597;28;20416;-63
2021/12/02 09:38:08;;;;;;;2.22;0.10;;;21.10;33.70;;;;;;5093244;28;20462;-64
2021/12/02 09:40:35;;;;;;;4.05;0.20;;;21.50;33.10;;;;;;5095575;28;20040;-63
2021/12/02 09:43:01;;;;;;;2.28;0.03;;;22.00;32.70;;;;;;5090796;28;20031;-66
2021/12/02 09:45:27;;;;;;;0.80;0.10;;;22.60;31.90;;;;;;5090939;27;20782;-65
2021/12/02 09:47:52;;;;;;;2.20;0.10;;;23.00;31.50;;;;;;5093612;28;20035;-64
2021/12/02 09:50:29;;;;;;;0.47;0.10;;;23.60;31.00;;;;;;5093019;28;20797;-64
2021/12/02 09:53:00;;;;;;;0.45;0.00;;;24.10;30.30;;;;;;5095195;27;20117;-64
2021/12/02 09:55:35;;;;;;;0.30;0.00;;;24.40;29.70;;;;;;5095887;28;20032;-65
2021/12/02 09:58:07;;;;;;;0.38;0.10;;;24.30;29.10;;;;;;5100754;28;20498;-63
2021/12/02 10:00:39;;;;;;;1.08;0.10;;;24.10;29.10;;;;;;5092187;28;20043;-65
2021/12/02 10:03:17;;;;;;;0.55;0.00;;;23.90;29.30;;;;;;5090476;28;20113;-62
2021/12/02 10:05:55;;;;;;;3.17;0.32;;;23.80;29.60;;;;;;5092123;28;20031;-62
2021/12/02 10:08:25;;;;;;;1.35;0.00;;;23.90;30.00;;;;;;5084943;28;20071;-62
2021/12/02 10:10:55;;;;;;;;;;;24.10;30.10;;;;;;5103049;27;20043;-66
2021/12/02 10:13:30;;;;;;;4.90;0.10;;;24.20;30.00;;;;;;5080487;27;19930;-65
2021/12/02 10:16:06;;;;;;;3.92;0.10;;;24.20;30.40;;;;;;5090019;28;20055;-66
2021/12/02 10:18:49;;;;;;;18.15;0.43;;;24.10;30.40;;;;;;5099720;28;20043;-67
2021/12/02 10:21:26;;;;;;;0.73;0.10;;;23.60;30.80;;;;;;5091864;28;20039;-65
2021/12/02 10:23:58;;;;;;;6.68;0.30;;;23.00;31.50;;;;;;5091385;28;20043;-66
2021/12/02 10:26:24;;;;;;;4.90;0.30;;;22.50;32.10;;;;;;5088599;28;20067;-67
2021/12/02 10:28:52;;;;;;;1.58;0.10;;;22.10;32.90;;;;;;5090262;28;20063;-65
2021/12/02 10:31:23;;;;;;;4.53;0.10;;;21.90;33.50;;;;;;5089313;28;20319;-65
2021/12/02 10:33:57;;;;;;;1.38;0.17;;;21.70;34.60;;;;;;5094875;28;20745;-64
2021/12/02 10:36:44;;;;;;;3.42;0.20;;;21.40;35.00;;;;;;5095035;27;20046;-66
2021/12/02 10:42:09;;;;;;;3.20;0.10;;;21.00;36.00;;;;;;5086607;27;20436;-66
2021/12/02 10:44:39;;;;;;;1.55;0.10;;;20.80;36.50;;;;;;5074069;28;20044;-63
2021/12/02 10:52:30;;;;;;;5.53;0.30;;;20.40;37.80;;;;;;5002379;27;4160800;-68
2021/12/02 10:57:47;;;;;;;4.47;0.10;;;20.30;38.10;;;;;;5124908;27;20494;-67
2021/12/02 11:00:19;;;;;;;6.65;0.15;;;20.10;39.30;;;;;;5097390;27;20127;-68
2021/12/02 11:02:48;;;;;;;2.50;0.10;;;20.00;39.70;;;;;;5092504;27;20039;-67
2021/12/02 11:10:36;;;;;;;5.45;0.20;;;20.00;40.40;;;;;;5091791;27;20466;-67
2021/12/02 11:13:02;;;;;;;1.70;0.10;;;20.10;40.00;;;;;;5082852;28;20052;-66
2021/12/02 11:15:30;;;;;;;2.83;0.20;;;20.30;39.80;;;;;;5091436;28;20044;-64
2021/12/02 11:17:59;;;;;;;2.28;0.17;;;20.60;39.30;;;;;;5089223;28;20119;-67
2021/12/02 11:20:47;;;;;;;1.15;0.10;;;20.70;38.60;;;;;;5088213;28;20048;-68
2021/12/02 11:23:18;;;;;;;2.78;0.20;;;20.90;37.90;;;;;;5088466;28;20044;-67
2021/12/02 11:26:05;;;;;;;1.75;0.08;;;21.10;36.60;;;;;;5091041;28;20043;-67
2021/12/02 11:28:34;;;;;;;3.83;0.20;;;21.10;35.50;;;;;;5089584;28;20515;-63
2021/12/02 11:31:18;;;;;;;2.53;0.10;;;21.20;34.80;;;;;;5094511;28;20483;-66
2021/12/02 11:33:46;;;;;;;2.92;0.00;;;21.30;34.80;;;;;;5092278;28;20032;-65
2021/12/02 11:36:23;;;;;;;2.97;0.00;;;21.70;34.60;;;;;;5086970;28;20109;-62
2021/12/02 11:38:51;;;;;;;2.75;0.10;;;22.10;33.60;;;;;;5099182;27;20035;-69
2021/12/02 11:41:19;;;;;;;0.68;0.00;;;22.20;32.80;;;;;;5103867;27;20056;-68
2021/12/02 11:43:45;;;;;;;0.60;0.00;;;22.40;32.50;;;;;;5091237;28;20206;-67
2021/12/02 11:46:14;;;;;;;1.95;0.00;;;22.60;31.90;;;;;;5090107;28;20047;-69
2021/12/02 11:48:43;;;;;;;0.93;0.10;;;22.70;31.60;;;;;;5090328;28;20044;-68
2021/12/02 11:54:08;;;;;;;2.90;0.10;;;23.10;31.20;;;;;;5068654;28;20458;-63
2021/12/02 11:56:36;;;;;;;1.85;0.00;;;22.80;30.60;;;;;;5057383;28;20152;-66
2021/12/02 11:59:02;;;;;;;0.25;0.00;;;22.80;30.70;;;;;;5059112;28;20041;-66
2021/12/02 12:01:28;;;;;;;2.45;0.57;;;22.90;30.60;;;;;;5069915;28;20048;-65
2021/12/02 12:04:03;;;;;;;1.60;0.00;;;22.90;30.40;;;;;;5050838;28;20048;-65
2021/12/02 12:06:32;;;;;;;0.17;0.00;;;22.90;30.30;;;;;;5056392;28;20078;-64
2021/12/02 12:08:58;;;;;;;1.40;0.00;;;22.90;30.50;;;;;;5047598;28;20106;-67
2021/12/02 12:11:30;;;;;;;1.70;0.00;;;22.70;30.80;;;;;;5044746;28;20056;-64
2021/12/02 12:16:38;;;;;;;0.88;0.10;;;22.50;31.60;;;;;;5086526;27;20495;-65
2021/12/02 12:27:25;;;;;;;2.05;0.10;;;21.80;33.20;;;;;;5049566;27;20478;-67
2021/12/02 12:32:54;;;;;;;2.78;0.10;;;21.40;34.70;;;;;;5095544;27;20674;-65
2021/12/02 12:38:03;;;;;;;3.45;0.20;;;21.10;35.60;;;;;;5102307;27;20430;-65
2021/12/02 12:40:40;;;;;;;2.83;0.10;;;20.80;36.50;;;;;;5075064;28;20054;-68
2021/12/02 12:45:45;;;;;;;2.40;0.10;;;20.70;37.10;;;;;;5099468;27;20467;-68
2021/12/02 12:48:28;;;;;;;2.75;0.10;;;20.50;38.20;;;;;;5081655;28;20093;-67
2021/12/02 12:51:07;;;;;;;4.18;0.10;;;20.40;38.20;;;;;;5095000;28;20043;-68
2021/12/02 12:53:37;;;;;;;2.13;0.00;;;20.30;38.30;;;;;;5096822;28;20063;-67
2021/12/02 12:56:06;;;;;;;3.40;0.10;;;20.20;38.10;;;;;;5097822;28;20110;-67
2021/12/02 12:58:39;;;;;;;0.50;0.10;;;20.10;38.80;;;;;;5101668;27;20052;-70
2021/12/02 13:04:06;;;;;;;1.52;0.00;;;20.10;39.10;;;;;;5117377;27;1205587;-72
2021/12/02 13:09:57;;;;;;;3.15;0.10;;;19.90;40.70;;;;;;5050746;28;20462;-65
2021/12/02 13:12:44;;;;;;;9.52;1.27;;;19.90;40.70;;;;;;5049752;28;20056;-65
2021/12/02 13:15:17;;;;;;;6.40;0.90;;;20.00;41.10;;;;;;5039207;28;20342;-66
2021/12/02 13:18:02;;;;;;;3.75;0.20;;;20.00;41.10;;;;;;5050834;28;20048;-66
2021/12/02 13:20:41;;;;;;;1.30;0.20;;;20.10;40.80;;;;;;5037450;28;20056;-68
2021/12/02 13:25:58;;;;;;;0.60;0.22;;;20.30;41.10;;;;;;5065010;27;21028;-72
2021/12/02 13:28:42;;;;;;;2.67;0.15;;;20.70;40.30;;;;;;5063417;28;20072;-67
2021/12/02 13:31:13;;;;;;;4.28;0.10;;;20.90;40.00;;;;;;5066802;28;20110;-68
2021/12/02 13:33:41;;;;;;;;;;;21.20;39.70;;;;;;5067240;28;20048;-67
2021/12/02 13:36:09;;;;;;;0.47;0.00;;;21.30;39.30;;;;;;5067724;28;19923;-68
2021/12/02 13:38:35;;;;;;;5.40;0.20;;;21.40;39.00;;;;;;5063604;28;20078;-66
2021/12/02 13:41:19;;;;;;;3.85;0.10;;;21.30;38.70;;;;;;5062173;28;20036;-65
2021/12/02 13:43:52;;;;;;;3.22;0.10;;;21.20;38.80;;;;;;5060864;28;20478;-68
2021/12/02 13:46:26;;;;;;;7.35;0.10;;;21.10;39.20;;;;;;5062128;28;20041;-68
2021/12/02 13:48:54;;;;;;;7.25;0.60;;;21.00;40.20;;;;;;5067716;28;20068;-66
2021/12/02 13:54:28;;;;;;;2.05;0.20;;;20.90;39.80;;;;;;5068118;28;20048;-66
2021/12/02 13:56:56;;;;;;;3.53;0.15;;;20.70;39.30;;;;;;5066531;28;20055;-63
2021/12/02 13:59:24;;;;;;;4.40;0.17;;;20.60;39.70;;;;;;5059564;28;20033;-67
2021/12/02 14:01:54;;;;;;;9.43;0.90;;;20.50;40.20;;;;;;5075444;28;20070;-68
2021/12/02 14:04:21;;;;;;;4.53;0.38;;;20.50;40.80;;;;;;5067904;28;20055;-67
2021/12/02 14:06:49;;;;;;;10.38;0.20;;;20.50;41.10;;;;;;5072051;28;20071;-67
2021/12/02 14:09:17;;;;;;;3.15;0.20;;;20.40;41.20;;;;;;5072606;28;20093;-67
2021/12/02 14:11:44;;;;;;;0.85;0.20;;;20.40;39.60;;;;;;5075998;28;20101;-67
2021/12/02 14:14:18;;;;;;;1.17;0.15;;;20.30;37.70;;;;;;5074697;28;20553;-67